FR-0041 weather

Centre Hospitalier J. Bouveri Heliport
Montceau Les Mines, Burgundy, France

Public forecast

Using degrees Celsius for public forecast. Weather courtesy of forecast.io.

METAR (pilot weather report)

Closest report is Saint-Yan Airport, 19.5 nm (36.0 km) SW. Retrieved 2019/07/17 22:30 UTC (0 seconds ago):

LFLN 172230Z AUTO 14003KT CAVOK 17/11 Q1013

TAF (pilot weather forecast)

Forecast is more than 12 hours old.

Closest forecast is Dijon-Bourgogne Airport, 48.4 nm (89.6 km) NE. Retrieved 2015/06/01 00:11 UTC (4 years ago):

TAF LFSD 010600Z 0100/0124 CNL